Pagrindinis puslapis
METAR-TAF:

METAR-TAF

Oro uostai :

Makao, Kinija

platuma: 22-10N, ilguma: 113-34E, Aukštis: 114 m

Dabartinis oras

Ataskaita buvo paskelbta 34 minutes, ne 23:00 UTC
Vėjas 8 kt iš Rytų, svyruoja nuo Rytų/Šiaurės Rytų ir Rytų/Pietryčių
Temperatūra 19°C
Drėgmė 83%
Slėgis 1020 hPa
Matomumas 10 km arba daugiau
Mažai debesys ne aukštis 1600 ft
Išsisklaidę debesys ne aukštis 4000 ft

METAR: VMMC 142300Z 09008KT 060V120 9999 FEW016 SCT040 19/16 Q1020 NOSIG

Laikas: 07:34 (23:34 UTC)

Prognozė

Ataskaita buvo paskelbta 6 valandos ir 34 minutes, ne 17:00 UTC
Prognozė galioja nuo 14 metu 18 UTC su 15 metu 24 UTC
Vėjas 12 kt iš Rytų/Pietryčių
Matomumas: 9000 m
Mažai debesys ne aukštis 4000 ft
Laikinai
nuo 14 metu 21 UTC su 15 metu 06 UTC
Vėjas 8 kt iš Šiaurės/Šiaurės Rytų
Matomumas: 4000 m
rūkana

TAF: VMMC 141700Z 1418/1524 11012KT 9000 FEW040 TEMPO 1421/1506 03008KT 4000 BR

Orai ataskaitas ir orų prognozės (METAR, TAF).

turimą stotys yra geltonos ir raudonos taškus žemėlapyje.

Perkelti pele per norėdami pamatyti stoties vardą.

Tada spustelėkite, norėdami matyti oro stebėjimo ir prognozės.

Norėdami pakeisti žemėlapį: spustelėkite ant žalios mygtukų su juodo kryžiaus žemyn,; žalią mygtuką su brūkšneliu, jei norite nutolinti; arba žalių rodyklių gretimoms žemėlapius.


METAR-TAF: